createdAt,value
2022-09-25T00:01:06.799Z,27.80
2022-09-25T00:03:09.969Z,26.40
2022-09-25T00:05:12.004Z,17.83
2022-09-25T00:07:13.990Z,21.17
2022-09-25T00:09:20.328Z,16.57
2022-09-25T00:11:31.128Z,19.30
2022-09-25T00:13:34.027Z,17.23
2022-09-25T00:15:37.327Z,14.73
2022-09-25T00:17:39.869Z,17.10
2022-09-25T00:19:50.491Z,16.43
2022-09-25T00:21:53.752Z,14.93
2022-09-25T00:23:55.725Z,18.53
2022-09-25T00:25:59.773Z,19.13
2022-09-25T00:28:02.008Z,27.77
2022-09-25T00:30:05.162Z,24.40
2022-09-25T00:32:08.684Z,22.90
2022-09-25T00:34:11.168Z,19.50
2022-09-25T00:36:13.118Z,26.73
2022-09-25T00:38:15.086Z,22.23
2022-09-25T00:40:17.366Z,23.47
2022-09-25T00:42:20.589Z,20.40
2022-09-25T00:45:01.187Z,24.70
2022-09-25T00:47:03.819Z,23.13
2022-09-25T00:49:11.764Z,20.17
2022-09-25T00:51:13.875Z,27.13
2022-09-25T00:53:21.262Z,18.97
2022-09-25T00:55:26.047Z,20.93
2022-09-25T00:57:31.638Z,21.80
2022-09-25T00:59:36.920Z,20.03
2022-09-25T01:01:38.900Z,23.00
2022-09-25T01:03:41.725Z,22.20
2022-09-25T01:05:44.776Z,24.27
2022-09-25T01:07:48.289Z,18.00
2022-09-25T01:09:50.277Z,24.60
2022-09-25T01:11:52.200Z,17.87
2022-09-25T01:13:56.229Z,19.30
2022-09-25T01:16:04.530Z,20.20
2022-09-25T01:18:14.936Z,21.50
2022-09-25T01:20:32.731Z,19.00
2022-09-25T01:23:08.750Z,20.13
2022-09-25T01:25:25.949Z,16.93
2022-09-25T01:27:35.449Z,16.73
2022-09-25T01:29:41.562Z,19.23
2022-09-25T01:31:47.942Z,18.20
2022-09-25T01:33:57.402Z,18.67
2022-09-25T01:36:17.357Z,17.30
2022-09-25T01:38:24.195Z,15.90
2022-09-25T01:40:36.163Z,18.67
2022-09-25T01:42:46.360Z,18.13
2022-09-25T01:45:00.014Z,17.50
2022-09-25T01:47:18.496Z,14.10
2022-09-25T01:49:33.605Z,18.50
2022-09-25T01:51:41.936Z,14.67
2022-09-25T01:53:48.437Z,19.40
2022-09-25T01:55:57.890Z,15.77
2022-09-25T01:58:08.727Z,15.80
2022-09-25T02:00:13.527Z,17.23
2022-09-25T02:02:19.595Z,16.83
2022-09-25T02:04:28.707Z,15.83
2022-09-25T02:06:32.900Z,16.73
2022-09-25T02:08:39.746Z,32.77
2022-09-25T02:10:49.246Z,16.73
2022-09-25T02:12:54.079Z,17.43
2022-09-25T02:15:11.280Z,16.73
2022-09-25T02:17:37.265Z,18.20
2022-09-25T02:19:58.288Z,17.67
2022-09-25T02:22:15.760Z,21.57
2022-09-25T02:24:23.745Z,23.20
2022-09-25T02:26:31.205Z,19.90
2022-09-25T02:28:33.595Z,23.97
2022-09-25T02:30:35.714Z,20.73
2022-09-25T02:32:37.732Z,24.57
2022-09-25T02:34:39.784Z,20.73
2022-09-25T02:36:43.209Z,26.13
2022-09-25T02:38:45.742Z,18.33
2022-09-25T02:41:03.362Z,23.73
2022-09-25T02:43:23.086Z,21.40
2022-09-25T02:45:43.355Z,20.80
2022-09-25T02:47:51.902Z,22.00
2022-09-25T02:50:19.749Z,18.80
2022-09-25T02:52:27.901Z,17.70
2022-09-25T02:54:38.703Z,20.63
2022-09-25T02:56:45.121Z,19.90
2022-09-25T02:58:54.907Z,17.77
2022-09-25T03:00:57.875Z,19.03
2022-09-25T03:03:00.628Z,19.57
2022-09-25T03:05:03.935Z,23.10
2022-09-25T03:07:06.668Z,20.07
2022-09-25T03:09:10.086Z,21.00
2022-09-25T03:11:15.198Z,22.93
2022-09-25T03:13:34.125Z,24.60
2022-09-25T03:15:37.167Z,22.93
2022-09-25T03:17:42.129Z,52.90
2022-09-25T03:19:44.129Z,59.57
2022-09-25T03:21:47.454Z,65.33
2022-09-25T03:23:49.393Z,64.00
2022-09-25T03:25:54.813Z,62.20
2022-09-25T03:27:56.886Z,60.13
2022-09-25T03:29:58.881Z,53.93
2022-09-25T03:32:01.048Z,48.90
2022-09-25T03:34:03.021Z,53.77
2022-09-25T03:36:12.977Z,44.57
2022-09-25T03:38:15.040Z,44.10
2022-09-25T03:40:17.168Z,37.43
2022-09-25T03:42:20.113Z,34.50
2022-09-25T03:44:22.175Z,28.77
2022-09-25T03:46:26.712Z,32.73
2022-09-25T03:48:28.782Z,33.30
2022-09-25T03:50:30.998Z,43.07
2022-09-25T03:52:32.991Z,39.33
2022-09-25T03:54:34.916Z,34.70
2022-09-25T03:56:36.887Z,34.93
2022-09-25T03:58:38.986Z,38.70
2022-09-25T04:00:41.368Z,36.63
2022-09-25T04:02:43.446Z,34.53
2022-09-25T04:04:45.893Z,30.87
2022-09-25T04:06:47.880Z,31.33
2022-09-25T04:08:50.090Z,30.60
2022-09-25T04:10:52.831Z,28.03
2022-09-25T04:12:55.716Z,28.50
2022-09-25T04:14:57.648Z,29.27
2022-09-25T04:16:59.620Z,27.93
2022-09-25T04:19:01.633Z,29.73
2022-09-25T04:21:05.899Z,27.30
2022-09-25T04:23:07.903Z,32.30
2022-09-25T04:25:10.144Z,25.40
2022-09-25T04:27:12.217Z,24.40
2022-09-25T04:29:15.374Z,30.70
2022-09-25T04:31:17.507Z,25.57
2022-09-25T04:33:38.487Z,27.70
2022-09-25T04:35:43.701Z,24.77
2022-09-25T04:37:45.653Z,25.30
2022-09-25T04:39:47.609Z,22.00
2022-09-25T04:41:49.665Z,19.30
2022-09-25T04:43:51.652Z,20.90
2022-09-25T04:45:53.694Z,18.93
2022-09-25T04:47:56.434Z,18.80
2022-09-25T04:49:58.456Z,22.20
2022-09-25T04:52:00.500Z,22.93
2022-09-25T04:54:02.725Z,25.67
2022-09-25T04:56:12.260Z,27.90
2022-09-25T04:58:16.810Z,24.83
2022-09-25T05:00:19.631Z,28.60
2022-09-25T05:02:26.978Z,28.50
2022-09-25T05:04:29.032Z,25.80
2022-09-25T05:06:30.939Z,28.57
2022-09-25T05:08:33.017Z,30.63
2022-09-25T05:10:35.151Z,31.03
2022-09-25T05:12:37.909Z,26.13
2022-09-25T05:14:42.633Z,29.43
2022-09-25T05:16:46.209Z,30.97
2022-09-25T05:18:48.711Z,29.57
2022-09-25T05:20:51.392Z,31.73
2022-09-25T05:22:57.369Z,29.33
2022-09-25T05:24:59.368Z,27.70
2022-09-25T05:27:01.389Z,30.20
2022-09-25T05:29:04.868Z,30.10
2022-09-25T05:31:06.918Z,28.20
2022-09-25T05:33:08.947Z,26.20
2022-09-25T05:35:11.897Z,25.93
2022-09-25T05:37:13.949Z,24.73
2022-09-25T05:39:15.932Z,23.40
2022-09-25T05:41:18.717Z,27.90
2022-09-25T05:43:20.674Z,23.00
2022-09-25T05:45:25.808Z,25.53
2022-09-25T05:47:27.833Z,22.53
2022-09-25T05:49:29.744Z,22.67
2022-09-25T05:51:32.668Z,25.40
2022-09-25T05:53:34.688Z,22.00
2022-09-25T05:55:36.706Z,23.13
2022-09-25T05:57:39.107Z,20.37
2022-09-25T05:59:41.068Z,31.60
2022-09-25T06:01:43.114Z,20.63
2022-09-25T06:03:45.610Z,24.20
2022-09-25T06:05:48.997Z,22.17
2022-09-25T06:07:55.280Z,20.97
2022-09-25T06:09:57.177Z,19.33
2022-09-25T06:11:59.159Z,18.33
2022-09-25T06:14:01.681Z,22.50
2022-09-25T06:16:05.572Z,21.77
2022-09-25T06:18:09.089Z,24.27
2022-09-25T06:20:15.842Z,22.27
2022-09-25T06:22:18.193Z,18.43
2022-09-25T06:24:20.221Z,19.23
2022-09-25T06:26:22.241Z,19.43
2022-09-25T06:28:24.128Z,18.70
2022-09-25T06:30:30.984Z,20.97
2022-09-25T06:32:32.957Z,17.70
2022-09-25T06:34:34.907Z,20.30
2022-09-25T06:36:36.837Z,20.50
2022-09-25T06:38:38.813Z,19.97
2022-09-25T06:40:41.993Z,21.43
2022-09-25T06:42:46.164Z,23.53
2022-09-25T06:44:48.151Z,26.13
2022-09-25T06:46:51.100Z,21.47
2022-09-25T06:48:57.896Z,18.70
2022-09-25T06:51:01.222Z,20.53
2022-09-25T06:53:03.199Z,19.30
2022-09-25T06:55:05.568Z,21.20
2022-09-25T06:57:09.959Z,20.10
2022-09-25T06:59:11.962Z,24.23
2022-09-25T07:01:14.303Z,20.27
2022-09-25T07:03:34.881Z,23.70
2022-09-25T07:05:36.827Z,24.17
2022-09-25T07:07:38.761Z,19.97
2022-09-25T07:09:40.761Z,21.03
2022-09-25T07:11:44.171Z,20.40
2022-09-25T07:13:46.335Z,21.07
2022-09-25T07:16:01.291Z,22.23
2022-09-25T07:18:03.803Z,24.93
2022-09-25T07:20:07.107Z,19.00
2022-09-25T07:22:11.284Z,22.30
2022-09-25T07:24:13.351Z,19.90
2022-09-25T07:26:21.800Z,21.37
2022-09-25T07:28:23.957Z,19.20
2022-09-25T07:30:32.122Z,21.83
2022-09-25T07:32:34.645Z,26.73
2022-09-25T07:34:37.672Z,29.03
2022-09-25T07:36:41.211Z,36.70
2022-09-25T07:38:43.424Z,22.33
2022-09-25T07:40:46.068Z,27.27
2022-09-25T07:42:48.056Z,22.60
2022-09-25T07:44:50.212Z,25.43
2022-09-25T07:46:52.347Z,20.77
2022-09-25T07:48:54.861Z,22.53
2022-09-25T07:51:00.293Z,19.97
2022-09-25T07:53:02.278Z,21.13
2022-09-25T07:55:04.636Z,18.50
2022-09-25T07:57:06.662Z,17.10
2022-09-25T07:59:08.658Z,18.40
2022-09-25T08:01:13.170Z,18.67
2022-09-25T08:03:15.246Z,17.23
2022-09-25T08:05:17.314Z,25.33
2022-09-25T08:07:19.362Z,19.17
2022-09-25T08:09:21.317Z,14.33
2022-09-25T08:11:23.596Z,20.00
2022-09-25T08:13:25.611Z,20.03
2022-09-25T08:15:27.707Z,14.63
2022-09-25T08:17:31.250Z,18.10
2022-09-25T08:19:33.293Z,16.20
2022-09-25T08:21:35.595Z,16.77
2022-09-25T08:23:37.595Z,15.77
2022-09-25T08:25:39.599Z,15.00
2022-09-25T08:27:41.602Z,16.63
2022-09-25T08:29:43.555Z,17.37
2022-09-25T08:31:45.477Z,15.97
2022-09-25T08:33:48.558Z,15.10
2022-09-25T08:35:58.767Z,19.40
2022-09-25T08:38:00.752Z,21.27
2022-09-25T08:40:02.643Z,15.40
2022-09-25T08:42:05.665Z,19.37
2022-09-25T08:44:19.054Z,16.53
2022-09-25T08:46:44.032Z,16.63
2022-09-25T08:49:07.467Z,16.77
2022-09-25T08:51:09.915Z,17.57
2022-09-25T08:53:25.401Z,16.83
2022-09-25T08:55:50.070Z,14.30
2022-09-25T08:57:55.640Z,14.63
2022-09-25T09:00:03.932Z,14.27
2022-09-25T09:02:17.142Z,14.90
2022-09-25T09:04:34.836Z,12.40
2022-09-25T09:06:38.556Z,14.50
2022-09-25T09:08:41.774Z,13.07
2022-09-25T09:10:50.829Z,16.03
2022-09-25T09:13:11.281Z,13.67
2022-09-25T09:15:30.498Z,16.40
2022-09-25T09:17:39.593Z,16.00
2022-09-25T09:19:42.073Z,14.80
2022-09-25T09:21:50.187Z,14.50
2022-09-25T09:24:12.498Z,13.73
2022-09-25T09:26:36.035Z,14.70
2022-09-25T09:29:00.379Z,13.80
2022-09-25T09:31:18.835Z,13.70
2022-09-25T09:33:34.304Z,14.80
2022-09-25T09:35:45.250Z,15.90
2022-09-25T09:38:26.271Z,16.00
2022-09-25T09:40:35.755Z,13.20
2022-09-25T09:42:55.927Z,14.23
2022-09-25T09:45:03.558Z,14.50
2022-09-25T09:47:18.455Z,16.57
2022-09-25T09:49:34.309Z,14.30
2022-09-25T09:51:44.788Z,15.27
2022-09-25T09:53:50.081Z,17.10
2022-09-25T09:55:55.736Z,14.43
2022-09-25T09:58:05.039Z,16.87
2022-09-25T10:00:14.918Z,14.00
2022-09-25T10:02:40.669Z,14.70
2022-09-25T10:04:43.588Z,16.30
2022-09-25T10:06:54.152Z,14.87
2022-09-25T10:08:56.115Z,13.17
2022-09-25T10:10:59.272Z,15.27
2022-09-25T10:13:06.640Z,17.23
2022-09-25T10:15:16.792Z,14.33
2022-09-25T10:17:19.563Z,13.77
2022-09-25T10:19:26.218Z,14.70
2022-09-25T10:21:59.572Z,12.50
2022-09-25T10:24:03.456Z,13.93
2022-09-25T10:26:27.797Z,11.87
2022-09-25T10:28:32.851Z,12.40
2022-09-25T10:30:34.772Z,16.47
2022-09-25T10:32:57.730Z,10.27
2022-09-25T10:35:00.082Z,11.47
2022-09-25T10:37:19.674Z,11.63
2022-09-25T10:39:48.964Z,11.57
2022-09-25T10:41:51.776Z,13.37
2022-09-25T10:44:00.187Z,13.50
2022-09-25T10:46:07.821Z,11.07
2022-09-25T10:48:49.502Z,11.00
2022-09-25T10:51:08.763Z,11.00
2022-09-25T10:53:30.531Z,12.83
2022-09-25T10:55:36.547Z,11.37
2022-09-25T10:57:39.209Z,10.60
2022-09-25T10:59:48.522Z,13.93
2022-09-25T11:01:53.170Z,9.93
2022-09-25T11:03:57.022Z,12.27
2022-09-25T11:06:08.832Z,11.23
2022-09-25T11:08:16.303Z,10.60
2022-09-25T11:10:30.631Z,19.80
2022-09-25T11:12:32.696Z,10.50
2022-09-25T11:14:35.728Z,9.70
2022-09-25T11:16:51.640Z,14.30
2022-09-25T11:19:07.379Z,11.20
2022-09-25T11:21:18.015Z,12.10
2022-09-25T11:23:32.411Z,9.10
2022-09-25T11:25:43.845Z,11.07
2022-09-25T11:27:54.419Z,9.97
2022-09-25T11:30:18.944Z,14.93
2022-09-25T11:32:47.691Z,10.13
2022-09-25T11:35:24.485Z,8.73
2022-09-25T11:38:02.472Z,7.40
2022-09-25T11:40:29.661Z,7.20
2022-09-25T11:43:01.720Z,7.20
2022-09-25T11:45:27.232Z,9.93
2022-09-25T11:47:37.669Z,7.80
2022-09-25T11:49:41.196Z,7.10
2022-09-25T11:52:17.224Z,7.40
2022-09-25T11:54:50.553Z,6.23
2022-09-25T11:57:11.805Z,7.00
2022-09-25T11:59:38.506Z,7.47
2022-09-25T12:01:55.933Z,8.47
2022-09-25T12:04:30.401Z,6.43
2022-09-25T12:06:55.155Z,7.10
2022-09-25T12:09:17.373Z,7.10
2022-09-25T12:11:41.356Z,6.13
2022-09-25T12:14:15.356Z,7.17
2022-09-25T12:16:26.054Z,9.07
2022-09-25T12:18:37.017Z,12.00
2022-09-25T12:21:00.024Z,8.67
2022-09-25T12:23:05.184Z,8.40
2022-09-25T12:25:19.694Z,11.57
2022-09-25T12:27:24.738Z,12.00
2022-09-25T12:29:50.021Z,7.60
2022-09-25T12:31:58.043Z,5.87
2022-09-25T12:34:23.782Z,6.90
2022-09-25T12:36:35.537Z,6.70
2022-09-25T12:39:16.027Z,9.43
2022-09-25T12:41:43.038Z,6.57
2022-09-25T12:43:52.026Z,6.80
2022-09-25T12:45:59.020Z,7.00
2022-09-25T12:48:21.468Z,6.33
2022-09-25T12:50:28.896Z,7.67
2022-09-25T12:52:43.354Z,7.10
2022-09-25T12:55:02.552Z,6.80
2022-09-25T12:57:13.447Z,8.50
2022-09-25T12:59:19.628Z,6.57
2022-09-25T13:01:24.706Z,6.70
2022-09-25T13:03:43.820Z,9.27
2022-09-25T13:06:44.596Z,7.50
2022-09-25T13:08:53.004Z,7.07
2022-09-25T13:11:14.901Z,8.23
2022-09-25T13:13:20.048Z,9.20
2022-09-25T13:15:25.403Z,9.30
2022-09-25T13:17:27.312Z,9.20
2022-09-25T13:19:33.101Z,10.90
2022-09-25T13:21:37.020Z,8.90
2022-09-25T13:23:41.449Z,9.70
2022-09-25T13:26:00.327Z,8.17
2022-09-25T13:28:07.613Z,9.77
2022-09-25T13:30:20.646Z,7.70
2022-09-25T13:32:24.875Z,10.53
2022-09-25T13:34:26.852Z,12.27
2022-09-25T13:36:47.509Z,10.43
2022-09-25T13:39:12.797Z,10.73
2022-09-25T13:41:15.254Z,11.10
2022-09-25T13:43:25.702Z,9.63
2022-09-25T13:45:33.127Z,9.47
2022-09-25T13:47:40.686Z,9.13
2022-09-25T13:49:50.686Z,10.10
2022-09-25T13:51:53.621Z,18.87
2022-09-25T13:53:59.901Z,10.67
2022-09-25T13:56:02.271Z,13.43
2022-09-25T13:58:04.332Z,10.97
2022-09-25T14:00:15.802Z,12.27
2022-09-25T14:02:43.622Z,11.77
2022-09-25T14:04:48.310Z,12.33
2022-09-25T14:06:54.626Z,11.63
2022-09-25T14:08:59.103Z,9.70
2022-09-25T14:11:05.504Z,11.73
2022-09-25T14:13:07.634Z,9.70
2022-09-25T14:15:22.597Z,8.23
2022-09-25T14:17:29.814Z,11.83
2022-09-25T14:19:39.054Z,10.07
2022-09-25T14:21:44.049Z,12.63
2022-09-25T14:24:11.794Z,11.23
2022-09-25T14:26:26.465Z,13.30
2022-09-25T14:28:31.305Z,12.97
2022-09-25T14:30:33.276Z,15.27
2022-09-25T14:32:55.168Z,15.33
2022-09-25T14:35:12.888Z,14.73
2022-09-25T14:37:15.715Z,13.83
2022-09-25T14:39:39.311Z,12.23
2022-09-25T14:41:54.439Z,9.60
2022-09-25T14:44:18.091Z,11.10
2022-09-25T14:46:21.148Z,11.37
2022-09-25T14:48:37.769Z,10.67
2022-09-25T14:50:46.830Z,13.10
2022-09-25T14:52:50.583Z,10.67
2022-09-25T14:54:55.553Z,11.90
2022-09-25T14:56:58.327Z,12.30
2022-09-25T14:59:03.383Z,11.47
2022-09-25T15:01:27.549Z,9.43
2022-09-25T15:03:31.360Z,9.53
2022-09-25T15:05:37.705Z,10.20
2022-09-25T15:07:42.768Z,9.33
2022-09-25T15:09:49.606Z,16.13
2022-09-25T15:11:54.058Z,9.20
2022-09-25T15:14:10.220Z,9.10
2022-09-25T15:16:40.141Z,5.87
2022-09-25T15:18:43.884Z,5.80
2022-09-25T15:20:48.006Z,6.60
2022-09-25T15:23:07.330Z,7.50
2022-09-25T15:25:18.894Z,7.47
2022-09-25T15:27:22.474Z,9.83
2022-09-25T15:29:25.506Z,9.00
2022-09-25T15:31:36.369Z,6.70
2022-09-25T15:33:39.763Z,6.80
2022-09-25T15:35:41.714Z,12.87
2022-09-25T15:37:44.576Z,8.80
2022-09-25T15:39:46.776Z,8.60
2022-09-25T15:41:48.878Z,8.70
2022-09-25T15:43:53.994Z,11.63
2022-09-25T15:45:59.158Z,8.40
2022-09-25T15:48:03.113Z,10.67
2022-09-25T15:50:06.993Z,8.20
2022-09-25T15:52:32.655Z,14.67
2022-09-25T15:54:38.552Z,12.30
2022-09-25T15:56:49.171Z,15.53
2022-09-25T15:59:01.101Z,12.60
2022-09-25T16:01:22.124Z,11.53
2022-09-25T16:03:44.886Z,17.97
2022-09-25T16:05:48.709Z,30.17
2022-09-25T16:07:50.650Z,13.83
2022-09-25T16:09:54.980Z,13.83
2022-09-25T16:12:58.772Z,12.27
2022-09-25T16:15:26.220Z,11.17
2022-09-25T16:17:37.158Z,10.17
2022-09-25T16:19:41.176Z,10.97
2022-09-25T16:21:43.257Z,10.10
2022-09-25T16:23:58.177Z,8.50
2022-09-25T16:26:01.253Z,10.93
2022-09-25T16:28:08.422Z,9.00
2022-09-25T16:30:19.731Z,10.90
2022-09-25T16:32:22.170Z,8.00
2022-09-25T16:34:28.239Z,7.80
2022-09-25T16:36:41.967Z,10.40
2022-09-25T16:39:04.584Z,8.30
2022-09-25T16:41:17.252Z,10.63
2022-09-25T16:43:25.511Z,10.57
2022-09-25T16:45:31.715Z,8.13
2022-09-25T16:47:35.027Z,10.37
2022-09-25T16:49:37.066Z,9.17
2022-09-25T16:51:45.387Z,9.40
2022-09-25T16:53:50.738Z,8.40
2022-09-25T16:55:53.897Z,8.00
2022-09-25T16:57:56.993Z,7.03
2022-09-25T16:59:59.140Z,10.10
2022-09-25T17:02:19.388Z,10.67
2022-09-25T17:04:29.062Z,11.63
2022-09-25T17:06:35.278Z,8.03
2022-09-25T17:08:37.373Z,9.80
2022-09-25T17:10:40.647Z,8.60
2022-09-25T17:12:47.700Z,11.00
2022-09-25T17:14:53.414Z,10.20
2022-09-25T17:16:56.669Z,8.60
2022-09-25T17:19:01.467Z,9.00
2022-09-25T17:21:07.062Z,8.23
2022-09-25T17:23:09.455Z,7.23
2022-09-25T17:25:21.991Z,8.53
2022-09-25T17:27:24.062Z,10.13
2022-09-25T17:29:28.090Z,9.03
2022-09-25T17:31:30.384Z,8.10
2022-09-25T17:33:32.836Z,8.23
2022-09-25T17:35:43.059Z,8.57
2022-09-25T17:37:45.078Z,7.83
2022-09-25T17:39:47.073Z,9.80
2022-09-25T17:41:49.181Z,10.73
2022-09-25T17:43:52.291Z,9.53
2022-09-25T17:45:58.848Z,10.90
2022-09-25T17:48:01.422Z,10.90
2022-09-25T17:50:03.512Z,17.80
2022-09-25T17:52:05.608Z,10.60
2022-09-25T17:54:07.957Z,11.03
2022-09-25T17:56:11.175Z,10.60
2022-09-25T17:58:13.085Z,13.53
2022-09-25T18:00:15.652Z,17.70
2022-09-25T18:02:17.896Z,17.13
2022-09-25T18:04:22.798Z,11.10
2022-09-25T18:06:26.418Z,12.30
2022-09-25T18:08:28.498Z,12.10
2022-09-25T18:10:30.549Z,15.80
2022-09-25T18:12:32.498Z,13.80
2022-09-25T18:14:35.178Z,13.90
2022-09-25T18:16:37.463Z,17.30
2022-09-25T18:18:58.126Z,14.10
2022-09-25T18:21:18.346Z,12.67
2022-09-25T18:23:20.307Z,16.13
2022-09-25T18:25:22.348Z,12.93
2022-09-25T18:27:26.365Z,11.27
2022-09-25T18:29:28.340Z,13.37
2022-09-25T18:31:30.523Z,17.00
2022-09-25T18:33:32.528Z,9.73
2022-09-25T18:35:34.514Z,15.90
2022-09-25T18:37:36.560Z,11.83
2022-09-25T18:39:38.921Z,12.03
2022-09-25T18:41:43.898Z,12.60
2022-09-25T18:43:45.837Z,11.27
2022-09-25T18:45:51.123Z,14.73
2022-09-25T18:47:54.153Z,10.30
2022-09-25T18:49:56.121Z,10.77
2022-09-25T18:51:58.231Z,9.80
2022-09-25T18:54:00.464Z,13.00
2022-09-25T18:56:02.407Z,13.10
2022-09-25T18:58:04.372Z,12.10
2022-09-25T19:00:06.783Z,13.10
2022-09-25T19:02:23.301Z,12.97
2022-09-25T19:04:25.995Z,15.40
2022-09-25T19:06:27.945Z,14.90
2022-09-25T19:08:30.974Z,13.40
2022-09-25T19:10:35.579Z,14.60
2022-09-25T19:12:37.544Z,11.67
2022-09-25T19:14:39.439Z,15.60
2022-09-25T19:16:41.507Z,17.60
2022-09-25T19:18:44.109Z,18.60
2022-09-25T19:20:48.184Z,15.80
2022-09-25T19:22:50.747Z,14.63
2022-09-25T19:24:54.476Z,16.27
2022-09-25T19:26:56.648Z,15.63
2022-09-25T19:29:00.431Z,15.53
2022-09-25T19:31:07.708Z,16.57
2022-09-25T19:33:09.683Z,15.53
2022-09-25T19:35:11.891Z,14.43
2022-09-25T19:37:15.200Z,16.23
2022-09-25T19:39:17.254Z,12.20
2022-09-25T19:41:22.772Z,20.90
2022-09-25T19:43:24.760Z,18.13
2022-09-25T19:45:26.763Z,12.70
2022-09-25T19:47:28.914Z,15.80
2022-09-25T19:49:30.970Z,16.07
2022-09-25T19:51:32.878Z,14.37
2022-09-25T19:53:35.805Z,14.57
2022-09-25T19:55:37.985Z,14.50
2022-09-25T19:57:40.064Z,15.30
2022-09-25T19:59:41.998Z,13.77
2022-09-25T20:01:44.369Z,15.93
2022-09-25T20:03:46.743Z,14.60
2022-09-25T20:05:49.325Z,12.67
2022-09-25T20:07:51.396Z,14.00
2022-09-25T20:09:53.326Z,13.20
2022-09-25T20:11:55.380Z,12.20
2022-09-25T20:13:57.826Z,17.47
2022-09-25T20:16:08.600Z,18.17
2022-09-25T20:18:10.662Z,17.20
2022-09-25T20:20:13.299Z,14.77
2022-09-25T20:22:15.812Z,17.40
2022-09-25T20:24:18.689Z,14.00
2022-09-25T20:26:21.326Z,13.53
2022-09-25T20:28:23.320Z,13.10
2022-09-25T20:30:25.770Z,20.70
2022-09-25T20:32:27.786Z,14.83
2022-09-25T20:34:29.792Z,16.37
2022-09-25T20:36:31.801Z,17.57
2022-09-25T20:38:33.891Z,15.60
2022-09-25T20:40:38.930Z,15.97
2022-09-25T20:42:41.442Z,14.23
2022-09-25T20:44:44.244Z,14.90
2022-09-25T20:46:46.254Z,13.53
2022-09-25T20:48:51.439Z,15.23
2022-09-25T20:50:54.781Z,15.93
2022-09-25T20:52:57.333Z,19.30
2022-09-25T20:54:59.743Z,16.00
2022-09-25T20:57:01.736Z,16.83
2022-09-25T20:59:05.092Z,15.13
2022-09-25T21:01:12.685Z,13.83
2022-09-25T21:03:14.961Z,13.90
2022-09-25T21:05:17.019Z,16.57
2022-09-25T21:07:19.316Z,13.70
2022-09-25T21:09:25.657Z,14.17
2022-09-25T21:11:29.794Z,15.23
2022-09-25T21:13:33.328Z,15.20
2022-09-25T21:15:35.365Z,13.70
2022-09-25T21:17:37.315Z,14.50
2022-09-25T21:19:40.098Z,13.17
2022-09-25T21:21:42.254Z,15.33
2022-09-25T21:23:50.183Z,13.20
2022-09-25T21:25:52.535Z,13.77
2022-09-25T21:27:54.510Z,13.07
2022-09-25T21:29:56.442Z,13.83
2022-09-25T21:31:58.433Z,13.07
2022-09-25T21:34:00.526Z,14.30
2022-09-25T21:36:03.351Z,15.40
2022-09-25T21:38:05.503Z,14.20
2022-09-25T21:40:07.990Z,13.27
2022-09-25T21:42:10.041Z,14.00
2022-09-25T21:44:14.550Z,12.20
2022-09-25T21:46:18.536Z,13.60
2022-09-25T21:48:20.711Z,12.27
2022-09-25T21:50:22.700Z,11.87
2022-09-25T21:52:25.542Z,13.03
2022-09-25T21:54:28.372Z,12.80
2022-09-25T21:56:31.836Z,13.80
2022-09-25T21:58:34.711Z,11.73
2022-09-25T22:00:36.763Z,10.87
2022-09-25T22:02:39.617Z,11.53
2022-09-25T22:04:41.718Z,13.00
2022-09-25T22:06:47.055Z,17.90
2022-09-25T22:08:53.385Z,9.80
2022-09-25T22:10:59.326Z,11.37
2022-09-25T22:13:02.652Z,12.67
2022-09-25T22:15:05.123Z,11.33
2022-09-25T22:17:07.086Z,15.40
2022-09-25T22:19:17.233Z,9.87
2022-09-25T22:21:21.312Z,12.80
2022-09-25T22:23:24.034Z,10.97
2022-09-25T22:25:25.989Z,14.60
2022-09-25T22:27:28.359Z,13.30
2022-09-25T22:29:30.423Z,12.27
2022-09-25T22:31:33.944Z,11.60
2022-09-25T22:33:36.137Z,14.97
2022-09-25T22:35:38.419Z,12.63
2022-09-25T22:37:40.539Z,11.37
2022-09-25T22:39:42.790Z,13.50
2022-09-25T22:41:45.372Z,21.03
2022-09-25T22:43:50.673Z,12.50
2022-09-25T22:45:53.539Z,13.73
2022-09-25T22:47:56.003Z,11.30
2022-09-25T22:49:57.912Z,13.27
2022-09-25T22:51:59.976Z,13.20
2022-09-25T22:54:01.957Z,13.67
2022-09-25T22:56:22.128Z,12.20
2022-09-25T22:58:24.196Z,13.30
2022-09-25T23:00:26.287Z,13.80
2022-09-25T23:02:28.211Z,16.80
2022-09-25T23:04:30.217Z,11.53
2022-09-25T23:06:34.765Z,17.27
2022-09-25T23:08:36.946Z,18.03
2022-09-25T23:11:05.785Z,12.50
2022-09-25T23:13:01.290Z,13.03
2022-09-25T23:15:03.430Z,16.90
2022-09-25T23:17:05.421Z,12.20
2022-09-25T23:19:07.537Z,15.73
2022-09-25T23:21:09.554Z,17.33
2022-09-25T23:23:11.564Z,12.30
2022-09-25T23:25:13.494Z,14.30
2022-09-25T23:27:15.434Z,16.63
2022-09-25T23:29:19.214Z,13.30
2022-09-25T23:31:22.051Z,12.10
2022-09-25T23:33:24.132Z,11.93
2022-09-25T23:35:26.032Z,12.03
2022-09-25T23:37:28.624Z,12.60
2022-09-25T23:39:30.607Z,11.10
2022-09-25T23:41:37.852Z,10.13
2022-09-25T23:43:39.884Z,10.67
2022-09-25T23:45:42.140Z,9.80
2022-09-25T23:47:44.145Z,12.57
2022-09-25T23:49:46.102Z,11.03
2022-09-25T23:51:48.185Z,10.30
2022-09-25T23:53:50.364Z,11.00
2022-09-25T23:55:52.265Z,17.53
2022-09-25T23:57:54.275Z,13.07
2022-09-25T23:59:56.599Z,11.20
